Time;durP1;ratioP1;P1;durP2;ratioP2;P2;SDS_P1;SDS_P2;PMS_P1;PMS_P2;Temp;Humidity;BMP_temperature;BMP_pressure;BME280_temperature;BME280_humidity;BME280_pressure;Samples;Min_cycle;Max_cycle;Signal;HPM_P1;HPM_P2
2021/10/28 00:13:30;;;;;;;34.10;23.27;;;6.50;99.90;;;;;;5054059;28;20033;-77
2021/10/28 00:15:58;;;;;;;29.85;21.38;;;6.50;99.90;;;;;;5048678;28;20502;-78
2021/10/28 00:21:07;;;;;;;33.60;23.40;;;6.50;99.90;;;;;;5041810;28;20083;-78
2021/10/28 00:23:40;;;;;;;32.35;23.48;;;6.50;99.90;;;;;;5023729;28;20037;-78
2021/10/28 00:26:06;;;;;;;31.73;21.40;;;6.60;99.90;;;;;;5038059;28;20056;-79
2021/10/28 00:28:32;;;;;;;31.55;22.00;;;6.60;99.90;;;;;;5023402;28;20033;-79
2021/10/28 00:30:58;;;;;;;31.00;20.98;;;6.50;99.90;;;;;;5039605;28;20040;-78
2021/10/28 00:33:24;;;;;;;30.63;21.25;;;6.50;99.90;;;;;;5037892;28;20074;-77
2021/10/28 00:35:50;;;;;;;30.42;20.58;;;6.50;99.90;;;;;;5038780;28;20017;-78
2021/10/28 00:38:15;;;;;;;28.08;19.92;;;6.50;99.90;;;;;;5041860;28;20520;-77
2021/10/28 00:40:41;;;;;;;30.48;21.77;;;6.60;99.90;;;;;;5026101;28;20089;-78
2021/10/28 00:43:07;;;;;;;27.02;20.23;;;6.60;99.90;;;;;;5030855;28;20120;-78
2021/10/28 00:45:33;;;;;;;28.00;19.80;;;6.60;99.90;;;;;;5042807;28;20034;-79
2021/10/28 00:47:59;;;;;;;25.60;18.83;;;6.60;99.90;;;;;;5041236;28;20053;-78
2021/10/28 00:50:25;;;;;;;27.58;20.38;;;6.50;99.90;;;;;;5022820;28;20025;-78
2021/10/28 00:52:51;;;;;;;26.27;18.67;;;6.50;99.90;;;;;;5040639;28;20029;-78
2021/10/28 00:55:17;;;;;;;24.40;17.70;;;6.60;99.90;;;;;;5024207;28;20067;-79
2021/10/28 00:57:44;;;;;;;26.30;18.67;;;6.70;99.90;;;;;;5040655;28;20033;-79
2021/10/28 01:00:10;;;;;;;21.80;15.98;;;6.80;99.90;;;;;;5040464;28;20071;-78
2021/10/28 01:02:36;;;;;;;17.88;14.32;;;6.80;99.90;;;;;;5040564;28;20075;-79
2021/10/28 01:05:01;;;;;;;17.17;13.60;;;6.70;99.90;;;;;;5042643;28;20025;-79
2021/10/28 01:07:28;;;;;;;21.02;15.20;;;6.70;99.90;;;;;;5040347;28;20387;-78
2021/10/28 01:09:54;;;;;;;17.75;15.20;;;6.50;99.90;;;;;;5040189;28;20050;-79
2021/10/28 01:12:21;;;;;;;21.70;15.52;;;6.40;99.90;;;;;;5042179;28;20162;-79
2021/10/28 01:14:47;;;;;;;18.42;14.20;;;6.30;99.90;;;;;;5023070;28;20013;-79
2021/10/28 01:17:13;;;;;;;20.25;14.50;;;6.30;99.90;;;;;;5041366;28;20123;-79
2021/10/28 01:19:39;;;;;;;16.48;12.95;;;6.30;99.90;;;;;;5040538;28;20109;-79
2021/10/28 01:22:06;;;;;;;18.10;13.52;;;6.30;99.90;;;;;;5040917;28;20057;-79
2021/10/28 01:24:32;;;;;;;15.68;12.20;;;6.20;99.90;;;;;;5040032;28;20029;-79
2021/10/28 01:27:06;;;;;;;16.33;12.35;;;6.10;99.90;;;;;;5039942;28;20115;-79
2021/10/28 01:29:32;;;;;;;16.45;12.68;;;6.20;99.90;;;;;;5042522;28;20359;-79
2021/10/28 01:31:58;;;;;;;16.23;12.38;;;6.20;99.90;;;;;;5030915;28;20084;-79
2021/10/28 01:34:24;;;;;;;19.55;15.25;;;6.20;99.90;;;;;;5003677;28;20116;-79
2021/10/28 01:36:50;;;;;;;20.15;14.93;;;6.10;99.90;;;;;;5035885;28;20064;-78
2021/10/28 01:39:22;;;;;;;22.20;14.68;;;6.10;99.90;;;;;;5025852;28;20021;-79
2021/10/28 01:41:48;;;;;;;17.55;13.75;;;6.10;99.90;;;;;;5040506;28;20029;-79
2021/10/28 01:44:14;;;;;;;17.77;14.10;;;6.00;99.90;;;;;;5049890;28;20014;-78
2021/10/28 01:46:40;;;;;;;16.70;12.93;;;6.00;99.90;;;;;;5046475;28;20112;-79
2021/10/28 01:49:06;;;;;;;16.42;12.10;;;6.10;99.90;;;;;;5040734;28;20021;-79
2021/10/28 01:51:32;;;;;;;16.13;12.63;;;6.10;99.90;;;;;;5040036;28;20030;-79
2021/10/28 01:53:58;;;;;;;15.30;12.95;;;6.20;99.90;;;;;;5040075;28;20644;-79
2021/10/28 01:56:24;;;;;;;17.00;12.77;;;6.10;99.90;;;;;;5040243;28;20040;-79
2021/10/28 01:58:51;;;;;;;15.20;11.75;;;6.10;99.90;;;;;;5039479;28;20021;-79
2021/10/28 02:01:18;;;;;;;15.27;10.88;;;6.00;99.90;;;;;;5032346;28;20022;-79
2021/10/28 02:03:44;;;;;;;14.98;11.63;;;6.00;99.90;;;;;;5023985;28;20031;-79
2021/10/28 02:06:10;;;;;;;15.30;11.88;;;6.00;99.90;;;;;;5041156;28;20021;-79
2021/10/28 02:08:36;;;;;;;13.63;11.07;;;5.90;99.90;;;;;;5057388;28;20028;-78
2021/10/28 02:11:01;;;;;;;15.00;11.95;;;5.80;99.90;;;;;;5045689;28;20038;-78
2021/10/28 02:13:27;;;;;;;15.55;11.50;;;5.70;99.90;;;;;;5030168;28;20029;-78
2021/10/28 02:15:53;;;;;;;14.95;11.80;;;5.70;99.90;;;;;;5050930;28;20029;-78
2021/10/28 02:18:19;;;;;;;14.00;10.43;;;5.70;99.90;;;;;;5041627;28;20088;-79
2021/10/28 02:20:45;;;;;;;14.77;11.02;;;5.70;99.90;;;;;;5041710;28;20021;-78
2021/10/28 02:23:11;;;;;;;13.65;11.13;;;5.80;99.90;;;;;;5045756;28;20033;-79
2021/10/28 02:25:37;;;;;;;14.55;11.60;;;5.80;99.90;;;;;;5039483;28;20052;-79
2021/10/28 02:28:03;;;;;;;14.90;11.43;;;5.90;99.90;;;;;;5038614;28;20109;-79
2021/10/28 02:30:29;;;;;;;14.70;11.15;;;5.90;99.90;;;;;;5039212;28;20450;-79
2021/10/28 02:32:55;;;;;;;15.23;11.52;;;6.10;99.90;;;;;;5003882;28;20030;-79
2021/10/28 02:35:21;;;;;;;16.70;12.10;;;6.20;99.90;;;;;;5034396;28;20543;-79
2021/10/28 02:37:46;;;;;;;16.17;12.75;;;6.30;99.90;;;;;;5039011;28;20075;-79
2021/10/28 02:40:13;;;;;;;13.77;10.60;;;6.30;99.90;;;;;;5040182;28;20041;-78
2021/10/28 02:42:39;;;;;;;17.17;12.30;;;6.30;99.90;;;;;;5021168;28;20436;-78
2021/10/28 02:45:07;;;;;;;14.63;11.63;;;6.30;99.90;;;;;;5039244;28;20028;-78
2021/10/28 02:47:33;;;;;;;17.80;12.57;;;6.30;99.90;;;;;;5037472;28;20056;-78
2021/10/28 02:49:59;;;;;;;18.70;12.93;;;6.20;99.90;;;;;;5038881;28;20471;-78
2021/10/28 02:52:25;;;;;;;18.15;12.55;;;6.20;99.90;;;;;;5039268;28;20078;-78
2021/10/28 02:54:52;;;;;;;17.67;13.23;;;6.30;99.90;;;;;;5040946;28;20021;-78
2021/10/28 02:57:19;;;;;;;18.95;13.52;;;6.30;99.90;;;;;;5039613;28;20021;-79
2021/10/28 02:59:44;;;;;;;16.70;12.80;;;6.30;99.90;;;;;;5041408;28;20033;-78
2021/10/28 03:02:10;;;;;;;15.20;11.68;;;6.30;99.90;;;;;;5021665;28;20032;-78
2021/10/28 03:04:36;;;;;;;17.95;11.57;;;6.40;99.90;;;;;;5038545;28;20033;-80
2021/10/28 03:07:02;;;;;;;14.63;10.93;;;6.40;99.90;;;;;;5039011;28;20072;-79
2021/10/28 03:09:29;;;;;;;15.40;11.82;;;6.40;99.90;;;;;;5038456;28;20025;-80
2021/10/28 03:11:58;;;;;;;14.48;11.13;;;6.30;99.90;;;;;;5035460;28;20028;-78
2021/10/28 03:17:06;;;;;;;13.85;10.45;;;6.20;99.90;;;;;;5040852;28;20025;-78
2021/10/28 03:27:30;;;;;;;14.70;10.38;;;6.30;99.90;;;;;;5040917;28;20052;-78
2021/10/28 03:29:57;;;;;;;14.30;10.10;;;6.30;99.90;;;;;;5042157;28;20489;-79
2021/10/28 03:32:28;;;;;;;15.52;12.13;;;6.30;99.90;;;;;;5019572;28;20036;-79
2021/10/28 03:34:54;;;;;;;13.95;10.23;;;6.30;99.90;;;;;;5020279;28;20029;-79
2021/10/28 04:29:53;;;;;;;23.88;15.48;;;6.70;99.90;;;;;;5063229;22;20408;-77
2021/10/28 04:32:19;;;;;;;25.80;16.05;;;6.70;99.90;;;;;;5039742;28;20130;-77
2021/10/28 04:34:45;;;;;;;24.13;15.98;;;6.70;99.90;;;;;;5058233;28;20028;-75
2021/10/28 04:37:11;;;;;;;22.25;15.50;;;6.70;99.90;;;;;;5039275;28;20021;-77
2021/10/28 04:39:37;;;;;;;21.25;14.85;;;6.70;99.90;;;;;;5042448;28;20048;-76
2021/10/28 04:42:04;;;;;;;22.48;15.05;;;6.70;99.90;;;;;;5056648;28;20037;-77
2021/10/28 04:44:29;;;;;;;24.13;16.83;;;6.60;99.90;;;;;;5052903;28;20448;-77
2021/10/28 04:46:55;;;;;;;22.63;15.85;;;6.60;99.90;;;;;;5034863;28;20068;-77
2021/10/28 04:49:21;;;;;;;21.42;15.30;;;6.60;99.90;;;;;;5035205;28;20045;-77
2021/10/28 04:51:47;;;;;;;24.05;16.27;;;6.60;99.90;;;;;;5045362;28;20100;-77
2021/10/28 04:54:13;;;;;;;24.83;15.60;;;6.60;99.90;;;;;;5037249;28;20489;-77
2021/10/28 04:56:39;;;;;;;21.55;15.18;;;6.60;99.90;;;;;;5038540;28;20040;-76
2021/10/28 04:59:04;;;;;;;26.35;17.13;;;6.70;99.90;;;;;;5018434;28;20121;-77
2021/10/28 05:01:30;;;;;;;25.67;17.10;;;6.70;99.90;;;;;;5048885;28;20025;-77
2021/10/28 05:03:56;;;;;;;22.67;15.63;;;6.70;99.90;;;;;;5040349;28;20492;-77
2021/10/28 05:06:22;;;;;;;24.85;16.85;;;6.70;99.90;;;;;;5046268;28;20087;-77
2021/10/28 05:08:48;;;;;;;25.20;16.30;;;6.80;99.90;;;;;;5025717;28;20033;-78
2021/10/28 05:11:18;;;;;;;24.95;17.80;;;6.90;99.90;;;;;;5030137;28;20481;-79
2021/10/28 05:13:44;;;;;;;19.95;15.30;;;6.90;99.90;;;;;;5027569;28;20023;-78
2021/10/28 05:16:10;;;;;;;19.60;13.93;;;6.90;99.90;;;;;;5047527;28;20024;-79
2021/10/28 05:18:40;;;;;;;20.50;14.45;;;6.80;99.90;;;;;;5038153;28;20021;-76
2021/10/28 05:21:07;;;;;;;22.15;14.75;;;6.90;99.90;;;;;;5049194;28;20048;-79
2021/10/28 05:23:33;;;;;;;21.05;15.77;;;6.80;99.90;;;;;;5047638;28;20032;-79
2021/10/28 05:25:59;;;;;;;20.05;15.32;;;6.80;99.90;;;;;;5049759;28;20067;-78
2021/10/28 05:28:25;;;;;;;20.73;15.52;;;6.80;99.90;;;;;;5023519;28;20025;-77
2021/10/28 05:30:50;;;;;;;21.50;15.45;;;6.70;99.90;;;;;;5045290;28;20037;-78
2021/10/28 05:33:16;;;;;;;24.95;16.88;;;6.70;99.90;;;;;;5046103;28;20013;-78
2021/10/28 05:35:42;;;;;;;23.73;16.13;;;6.70;99.90;;;;;;5035857;28;20095;-78
2021/10/28 05:38:08;;;;;;;25.10;15.10;;;6.60;99.90;;;;;;5064382;28;20025;-77
2021/10/28 05:40:34;;;;;;;21.58;15.70;;;6.60;99.90;;;;;;5052673;28;20059;-78
2021/10/28 05:43:01;;;;;;;21.75;15.93;;;6.70;99.90;;;;;;5047741;28;20398;-78
2021/10/28 05:45:32;;;;;;;22.13;16.77;;;6.70;99.90;;;;;;5057289;28;20029;-78
2021/10/28 05:47:57;;;;;;;23.38;16.05;;;6.70;99.90;;;;;;5065570;28;20048;-78
2021/10/28 05:50:24;;;;;;;25.25;17.85;;;6.80;99.90;;;;;;5069617;28;20025;-77
2021/10/28 05:52:52;;;;;;;22.67;15.98;;;6.80;99.90;;;;;;5044610;28;20029;-78
2021/10/28 05:55:20;;;;;;;22.80;15.20;;;6.90;99.90;;;;;;5043872;28;20013;-78
2021/10/28 05:57:47;;;;;;;22.27;15.63;;;6.90;99.90;;;;;;5044846;28;20051;-78
2021/10/28 06:00:14;;;;;;;20.65;14.57;;;7.00;99.90;;;;;;5032201;28;20021;-76
2021/10/28 06:02:41;;;;;;;23.42;16.55;;;7.00;99.90;;;;;;5044041;28;20025;-78
2021/10/28 06:05:07;;;;;;;28.33;18.23;;;7.10;99.90;;;;;;5020339;28;20441;-76
2021/10/28 06:07:34;;;;;;;25.88;17.08;;;7.10;99.90;;;;;;5057932;28;20048;-77
2021/10/28 06:10:01;;;;;;;20.80;15.18;;;7.10;99.90;;;;;;5057554;28;20036;-76
2021/10/28 06:12:31;;;;;;;27.85;19.20;;;7.10;99.90;;;;;;5043614;28;20088;-77
2021/10/28 06:14:57;;;;;;;26.38;17.65;;;7.10;99.90;;;;;;5060747;28;20283;-80
2021/10/28 06:17:43;;;;;;;28.17;18.10;;;7.10;99.90;;;;;;5067788;28;20028;-78
2021/10/28 06:20:09;;;;;;;28.45;18.65;;;7.20;99.90;;;;;;5049930;28;20053;-78
2021/10/28 06:22:35;;;;;;;26.70;18.45;;;7.20;99.90;;;;;;5042474;28;20091;-78
2021/10/28 06:25:07;;;;;;;26.70;17.60;;;7.20;99.90;;;;;;5042169;28;20387;-79
2021/10/28 06:27:33;;;;;;;;;;;7.30;99.90;;;;;;5026948;28;20033;-79
2021/10/28 06:29:59;;;;;;;27.52;18.52;;;7.30;99.90;;;;;;5041577;28;19963;-78
2021/10/28 06:32:26;;;;;;;26.70;17.52;;;7.30;99.90;;;;;;5048663;28;20474;-76
2021/10/28 06:35:00;;;;;;;25.17;16.80;;;7.30;99.90;;;;;;5037927;28;20045;-77
2021/10/28 06:37:27;;;;;;;23.85;16.60;;;7.40;99.90;;;;;;5024520;28;20060;-76
2021/10/28 06:39:53;;;;;;;24.88;16.67;;;7.40;99.90;;;;;;5031197;28;20402;-77
2021/10/28 06:42:19;;;;;;;23.75;16.48;;;7.40;99.90;;;;;;5046871;28;20036;-79
2021/10/28 06:44:45;;;;;;;24.23;15.88;;;7.40;99.90;;;;;;5054775;28;20123;-77
2021/10/28 06:47:11;;;;;;;20.42;14.75;;;7.40;99.90;;;;;;5036069;28;20022;-78
2021/10/28 06:49:41;;;;;;;25.02;17.17;;;7.40;99.90;;;;;;5039586;28;20029;-79
2021/10/28 06:52:09;;;;;;;24.38;15.68;;;7.50;99.90;;;;;;5063264;28;20047;-79
2021/10/28 06:54:37;;;;;;;22.42;16.00;;;7.40;99.90;;;;;;5044733;28;20037;-80
2021/10/28 06:57:18;;;;;;;22.90;15.98;;;7.40;99.90;;;;;;5044575;28;20024;-79
2021/10/28 07:05:01;;;;;;;22.77;16.17;;;7.40;99.90;;;;;;5060235;28;20029;-78
2021/10/28 07:07:32;;;;;;;22.38;15.52;;;7.40;99.90;;;;;;5022954;28;20363;-80
2021/10/28 07:15:06;;;;;;;19.52;13.90;;;7.50;99.90;;;;;;5061912;28;20025;-79
2021/10/28 07:17:37;;;;;;;;;;;7.50;99.90;;;;;;5036997;28;20053;-77
2021/10/28 07:59:37;;;;;;;10.80;9.02;;;8.90;99.90;;;;;;5069946;28;20072;-78
2021/10/28 08:18:29;;;;;;;12.73;9.52;;;9.00;99.90;;;;;;5065339;28;20032;-78
2021/10/28 08:28:44;;;;;;;10.95;8.57;;;9.00;99.90;;;;;;5049958;28;20048;-78
2021/10/28 08:31:12;;;;;;;10.63;8.30;;;8.90;99.90;;;;;;5054230;28;20084;-78
2021/10/28 08:33:39;;;;;;;10.90;8.15;;;8.90;99.90;;;;;;5057146;28;20021;-79
2021/10/28 08:36:09;;;;;;;10.00;7.50;;;9.10;99.90;;;;;;5046096;28;20090;-79
2021/10/28 08:38:39;;;;;;;11.15;9.30;;;9.30;99.90;;;;;;5049176;28;20022;-78
2021/10/28 08:41:10;;;;;;;9.90;8.43;;;9.50;99.90;;;;;;5069430;28;20124;-79
2021/10/28 08:43:41;;;;;;;8.05;7.25;;;9.60;99.90;;;;;;5063765;28;20021;-78
2021/10/28 08:46:11;;;;;;;9.48;7.22;;;9.80;99.80;;;;;;5047778;28;20095;-78
2021/10/28 08:48:41;;;;;;;11.05;8.88;;;10.00;99.60;;;;;;5069040;28;20031;-77
2021/10/28 08:51:14;;;;;;;10.40;8.40;;;10.20;98.40;;;;;;5059830;28;20021;-78
2021/10/28 08:56:54;;;;;;;12.07;9.55;;;10.40;97.80;;;;;;5065532;28;20086;-82
2021/10/28 09:24:26;;;;;;;12.57;10.18;;;10.50;96.00;;;;;;5055607;28;20082;-82
2021/10/28 09:27:03;;;;;;;12.13;9.82;;;10.40;95.70;;;;;;5037120;28;20104;-83
2021/10/28 09:46:32;;;;;;;13.25;9.88;;;10.70;94.40;;;;;;5065569;28;20119;-81
2021/10/28 09:52:18;;;;;;;12.48;10.15;;;11.20;94.20;;;;;;5049842;28;20017;-83
2021/10/28 09:54:46;;;;;;;10.32;8.48;;;11.40;93.60;;;;;;5046992;28;20080;-82
2021/10/28 10:00:12;;;;;;;11.40;9.70;;;12.00;91.80;;;;;;5050289;28;20048;-81
2021/10/28 10:02:51;;;;;;;10.43;8.57;;;12.20;91.40;;;;;;5053347;28;20037;-83
2021/10/28 10:05:20;;;;;;;11.27;9.18;;;12.30;90.90;;;;;;5067590;28;20025;-85
2021/10/28 10:07:47;;;;;;;10.40;8.68;;;12.40;90.30;;;;;;5050915;28;20111;-83
2021/10/28 10:10:19;;;;;;;9.23;7.68;;;12.50;90.00;;;;;;5061752;28;20032;-83
2021/10/28 10:12:47;;;;;;;8.30;6.80;;;12.70;89.50;;;;;;5034271;28;20025;-84
2021/10/28 10:15:13;;;;;;;14.18;9.75;;;12.80;88.30;;;;;;5035988;28;20037;-84
2021/10/28 10:17:41;;;;;;;14.68;12.15;;;12.70;87.00;;;;;;5037336;28;20029;-85
2021/10/28 10:20:12;;;;;;;12.65;10.35;;;12.70;85.50;;;;;;5058170;28;20025;-83
2021/10/28 10:22:50;;;;;;;13.90;11.80;;;12.60;86.20;;;;;;5051260;28;20016;-83
2021/10/28 10:26:04;;;;;;;14.25;11.38;;;12.50;87.80;;;;;;5075114;28;20024;-83
2021/10/28 10:29:41;;;;;;;15.75;12.18;;;12.50;88.40;;;;;;5054620;28;20029;-83
2021/10/28 12:24:29;;;;;;;12.00;9.80;;;15.80;73.40;;;;;;4996263;28;20030;-81
2021/10/28 12:44:29;;;;;;;9.57;8.27;;;14.90;75.30;;;;;;4987446;28;20053;-82
2021/10/28 13:48:14;;;;;;;12.43;8.98;;;15.70;72.20;;;;;;4995332;28;20021;-81
2021/10/28 13:50:57;;;;;;;12.50;9.18;;;15.50;73.20;;;;;;4996076;28;20037;-81
2021/10/28 13:56:51;;;;;;;10.57;9.00;;;15.40;73.80;;;;;;4993477;28;20088;-82
2021/10/28 13:59:35;;;;;;;9.75;8.27;;;15.30;73.60;;;;;;4979319;28;20023;-82
2021/10/28 14:21:12;;;;;;;13.02;9.90;;;14.60;78.20;;;;;;4969925;29;20023;-83
2021/10/28 15:28:17;;;;;;;20.45;13.07;;;12.20;94.00;;;;;;4983692;28;20042;-82
2021/10/28 15:36:42;;;;;;;16.25;13.02;;;12.00;95.60;;;;;;4981284;28;20122;-82
2021/10/28 15:55:33;;;;;;;16.92;13.07;;;11.30;99.60;;;;;;4992600;28;20119;-82
2021/10/28 16:22:06;;;;;;;19.15;14.40;;;10.30;99.90;;;;;;4985476;28;20034;-82
2021/10/28 16:24:34;;;;;;;17.52;13.52;;;10.20;99.90;;;;;;4985048;28;20019;-84
2021/10/28 16:27:01;;;;;;;21.05;14.73;;;10.10;99.90;;;;;;4986174;28;20007;-85
2021/10/28 16:29:28;;;;;;;19.50;14.85;;;10.10;99.90;;;;;;4988903;28;20107;-83
2021/10/28 16:31:55;;;;;;;19.48;14.25;;;10.00;99.90;;;;;;4984817;28;20046;-82
2021/10/28 16:34:21;;;;;;;19.13;14.48;;;9.90;99.90;;;;;;4982547;28;20031;-87
2021/10/28 16:36:48;;;;;;;21.42;15.65;;;9.80;99.90;;;;;;4965923;28;20037;-86
2021/10/28 16:39:15;;;;;;;18.48;14.80;;;9.80;99.90;;;;;;4984168;28;20077;-85
2021/10/28 16:41:47;;;;;;;15.02;12.85;;;9.70;99.90;;;;;;4996351;23;20066;-79
2021/10/28 16:44:14;;;;;;;16.42;12.90;;;9.60;99.90;;;;;;5014327;28;20038;-79
2021/10/28 16:46:41;;;;;;;16.63;13.38;;;9.60;99.90;;;;;;5019105;28;20046;-81
2021/10/28 16:49:08;;;;;;;16.30;13.00;;;9.50;99.90;;;;;;5002999;28;20037;-81
2021/10/28 16:51:35;;;;;;;15.45;13.63;;;9.50;99.90;;;;;;5002723;28;20493;-81
2021/10/28 16:54:01;;;;;;;17.40;13.15;;;9.40;99.90;;;;;;4996721;28;20026;-79
2021/10/28 16:56:27;;;;;;;17.33;13.55;;;9.40;99.90;;;;;;5001073;28;20037;-79
2021/10/28 16:58:52;;;;;;;16.33;13.63;;;9.30;99.90;;;;;;4994690;28;20022;-81
2021/10/28 17:01:18;;;;;;;16.83;13.80;;;9.30;99.90;;;;;;5000994;28;20045;-80
2021/10/28 17:03:44;;;;;;;16.45;13.63;;;9.20;99.90;;;;;;4990350;28;20027;-80
2021/10/28 17:06:13;;;;;;;15.85;12.77;;;9.20;99.90;;;;;;5000460;28;20114;-79
2021/10/28 17:08:40;;;;;;;14.20;11.63;;;9.10;99.90;;;;;;5004057;28;20057;-77
2021/10/28 17:11:06;;;;;;;12.93;10.30;;;9.10;99.90;;;;;;5004036;28;20086;-77
2021/10/28 17:13:33;;;;;;;15.27;12.25;;;9.00;99.90;;;;;;5002998;28;20061;-82
2021/10/28 17:15:59;;;;;;;13.90;11.57;;;9.00;99.90;;;;;;5002225;28;20082;-80
2021/10/28 17:18:25;;;;;;;15.77;12.43;;;9.00;99.90;;;;;;5002135;28;20057;-81
2021/10/28 17:20:51;;;;;;;16.67;13.07;;;9.00;99.90;;;;;;5002170;28;20070;-82
2021/10/28 17:23:19;;;;;;;14.38;11.98;;;8.90;99.90;;;;;;5003465;28;20022;-82
2021/10/28 17:25:54;;;;;;;14.18;12.18;;;8.90;99.90;;;;;;5003672;28;20025;-82
2021/10/28 17:28:20;;;;;;;14.70;11.60;;;8.90;99.90;;;;;;5004216;28;20036;-79
2021/10/28 17:30:46;;;;;;;16.20;12.10;;;8.80;99.90;;;;;;5014707;28;20078;-78
2021/10/28 17:33:12;;;;;;;16.70;12.93;;;8.80;99.90;;;;;;5002652;28;20026;-78
2021/10/28 17:35:38;;;;;;;21.42;15.82;;;8.70;99.90;;;;;;5007346;28;20061;-78
2021/10/28 17:38:04;;;;;;;21.13;16.02;;;8.70;99.90;;;;;;5007574;28;20026;-80
2021/10/28 17:40:30;;;;;;;20.52;15.38;;;8.70;99.90;;;;;;5009738;28;20088;-77
2021/10/28 17:42:56;;;;;;;23.08;16.02;;;8.60;99.90;;;;;;5012205;28;20038;-77
2021/10/28 17:45:29;;;;;;;21.13;15.35;;;8.60;99.90;;;;;;5007369;28;20018;-79
2021/10/28 17:47:56;;;;;;;21.70;16.35;;;8.50;99.90;;;;;;5002083;28;20027;-78
2021/10/28 17:50:23;;;;;;;23.52;16.83;;;8.40;99.90;;;;;;5001619;28;20036;-79
2021/10/28 17:52:49;;;;;;;21.63;16.88;;;8.30;99.90;;;;;;5002742;28;20505;-81
2021/10/28 17:55:15;;;;;;;24.70;17.63;;;8.30;99.90;;;;;;5003731;28;20030;-80
2021/10/28 17:57:44;;;;;;;27.33;18.17;;;8.20;99.90;;;;;;5003522;28;20022;-81
2021/10/28 18:00:12;;;;;;;24.02;17.80;;;8.20;99.90;;;;;;5004938;28;20117;-81
2021/10/28 18:02:39;;;;;;;24.92;17.08;;;8.10;99.90;;;;;;5005086;28;20062;-82
2021/10/28 18:05:06;;;;;;;20.65;15.57;;;8.00;99.90;;;;;;5003372;28;20388;-80
2021/10/28 18:07:32;;;;;;;25.95;17.88;;;7.90;99.90;;;;;;5019166;28;20046;-80
2021/10/28 18:09:59;;;;;;;25.67;18.52;;;7.90;99.90;;;;;;5003175;28;20063;-78
2021/10/28 18:12:29;;;;;;;24.05;18.13;;;7.80;99.90;;;;;;5010816;28;20029;-78
2021/10/28 18:14:56;;;;;;;25.58;18.52;;;7.80;99.90;;;;;;5006357;28;20022;-81
2021/10/28 18:17:22;;;;;;;27.50;20.48;;;7.70;99.90;;;;;;5005091;28;20053;-80
2021/10/28 18:19:48;;;;;;;30.17;19.23;;;7.60;99.90;;;;;;5005390;28;20037;-79
2021/10/28 18:22:15;;;;;;;27.15;19.40;;;7.60;99.90;;;;;;5002200;28;20026;-80
2021/10/28 18:24:42;;;;;;;26.55;19.73;;;7.60;99.90;;;;;;5000280;28;20112;-77
2021/10/28 18:27:09;;;;;;;25.67;18.40;;;7.50;99.90;;;;;;5000432;28;20033;-80
2021/10/28 18:29:36;;;;;;;23.90;18.23;;;7.40;99.90;;;;;;5000221;28;20046;-79
2021/10/28 18:32:03;;;;;;;30.05;19.75;;;7.40;99.90;;;;;;4999323;28;20109;-79
2021/10/28 18:34:30;;;;;;;27.88;19.25;;;7.30;99.90;;;;;;4999636;28;20033;-79
2021/10/28 18:36:56;;;;;;;27.70;19.40;;;7.30;99.90;;;;;;4999520;28;20022;-80
2021/10/28 18:39:22;;;;;;;25.85;18.83;;;7.30;99.90;;;;;;5003474;28;20015;-79
2021/10/28 18:41:48;;;;;;;27.85;18.77;;;7.20;99.90;;;;;;5017483;28;20044;-81
2021/10/28 18:44:15;;;;;;;31.52;21.23;;;7.20;99.90;;;;;;5003310;28;20030;-79
2021/10/28 18:46:40;;;;;;;31.00;21.92;;;7.20;99.90;;;;;;5000988;28;20031;-81
2021/10/28 18:49:08;;;;;;;30.70;19.83;;;7.10;99.90;;;;;;4998391;28;20517;-81
2021/10/28 18:51:36;;;;;;;28.23;19.42;;;7.10;99.90;;;;;;4998752;28;20026;-80
2021/10/28 18:54:03;;;;;;;25.38;18.88;;;7.00;99.90;;;;;;5001274;28;20101;-81
2021/10/28 18:56:29;;;;;;;30.60;20.88;;;6.90;99.90;;;;;;4999421;28;20022;-81
2021/10/28 18:58:56;;;;;;;29.88;21.15;;;6.80;99.90;;;;;;5001118;28;20024;-81
2021/10/28 19:01:22;;;;;;;27.67;18.73;;;6.80;99.90;;;;;;5004600;28;20026;-80
2021/10/28 19:03:51;;;;;;;26.58;19.15;;;6.70;99.90;;;;;;5009268;28;20026;-77
2021/10/28 19:06:16;;;;;;;25.45;18.25;;;6.60;99.90;;;;;;5008018;28;20042;-80
2021/10/28 19:08:43;;;;;;;26.02;19.17;;;6.50;99.90;;;;;;5014576;28;20062;-79
2021/10/28 19:11:10;;;;;;;28.90;19.55;;;6.40;99.90;;;;;;5013177;28;20022;-78
2021/10/28 19:13:38;;;;;;;31.13;20.30;;;6.40;99.90;;;;;;5009404;28;20014;-78
2021/10/28 19:16:06;;;;;;;28.80;18.95;;;6.30;99.90;;;;;;5007879;28;20022;-78
2021/10/28 19:18:31;;;;;;;26.55;17.80;;;6.20;99.90;;;;;;5004748;28;20031;-81
2021/10/28 19:20:58;;;;;;;25.15;17.90;;;6.30;99.90;;;;;;5005363;28;20048;-79
2021/10/28 19:23:24;;;;;;;26.42;18.13;;;6.20;99.90;;;;;;5002600;28;20065;-79
2021/10/28 19:25:50;;;;;;;26.15;18.30;;;6.10;99.90;;;;;;5002331;28;20095;-81
2021/10/28 19:28:16;;;;;;;28.00;19.08;;;6.10;99.90;;;;;;5003762;28;20085;-77
2021/10/28 19:31:00;;;;;;;28.55;19.13;;;6.00;99.90;;;;;;5016397;28;20022;-76
2021/10/28 19:33:49;;;;;;;28.90;19.63;;;6.00;99.90;;;;;;5016330;28;20050;-78
2021/10/28 19:36:17;;;;;;;32.45;20.58;;;5.90;99.90;;;;;;5014607;28;20050;-76
2021/10/28 19:47:15;;;;;;;29.98;19.38;;;5.90;99.90;;;;;;4959642;29;20063;-81
2021/10/28 19:49:44;;;;;;;27.65;20.23;;;5.80;99.90;;;;;;4984202;28;20035;-80
2021/10/28 19:52:12;;;;;;;28.88;19.88;;;5.90;99.90;;;;;;5001916;28;20034;-79
2021/10/28 19:54:39;;;;;;;27.35;19.25;;;5.90;99.90;;;;;;5005637;28;20022;-82
2021/10/28 19:57:12;;;;;;;27.08;17.75;;;6.00;99.90;;;;;;4999337;28;20479;-80
2021/10/28 19:59:41;;;;;;;;;;;6.00;99.90;;;;;;5005266;28;20031;-79
2021/10/28 20:02:14;;;;;;;22.27;16.15;;;6.00;99.90;;;;;;5015014;28;19972;-77
2021/10/28 20:05:03;;;;;;;23.90;17.00;;;6.00;99.90;;;;;;5030504;28;20019;-77
2021/10/28 20:21:11;;;;;;;25.35;16.85;;;5.70;99.90;;;;;;5002905;28;20053;-80
2021/10/28 20:23:39;;;;;;;25.25;18.05;;;5.60;99.90;;;;;;5000393;28;20052;-81
2021/10/28 20:26:05;;;;;;;26.48;18.73;;;5.60;99.90;;;;;;5000655;28;20541;-81
2021/10/28 20:28:37;;;;;;;27.13;18.55;;;5.60;99.90;;;;;;4998432;28;20391;-81
2021/10/28 20:31:04;;;;;;;25.13;16.70;;;5.60;99.90;;;;;;4982546;28;20031;-78
2021/10/28 20:33:32;;;;;;;25.65;17.58;;;5.50;99.90;;;;;;4983935;28;20019;-80
2021/10/28 20:37:04;;;;;;;26.48;16.88;;;5.50;99.90;;;;;;4983577;28;20026;-81
2021/10/28 20:38:52;;;;;;;31.70;20.30;;;5.40;99.90;;;;;;4983398;28;20050;-81
2021/10/28 20:41:18;;;;;;;24.73;17.75;;;5.30;99.90;;;;;;5002390;28;20142;-80
2021/10/28 20:43:44;;;;;;;28.33;18.83;;;5.30;99.90;;;;;;5004931;28;20023;-82
2021/10/28 20:46:15;;;;;;;25.25;17.77;;;5.30;99.90;;;;;;5003750;28;20032;-81
2021/10/28 20:48:41;;;;;;;24.70;17.13;;;5.20;99.90;;;;;;5002057;28;20049;-79
2021/10/28 20:51:08;;;;;;;27.55;18.90;;;5.20;99.90;;;;;;5001831;28;20037;-80
2021/10/28 20:53:33;;;;;;;23.58;16.70;;;5.20;99.90;;;;;;5003888;28;20053;-80
2021/10/28 20:56:00;;;;;;;24.67;17.00;;;5.20;99.90;;;;;;5007367;28;20018;-78
2021/10/28 20:58:26;;;;;;;25.23;18.13;;;5.20;99.90;;;;;;5018751;28;20029;-80
2021/10/28 21:00:52;;;;;;;24.95;16.25;;;5.20;99.90;;;;;;5002735;28;20096;-82
2021/10/28 21:03:18;;;;;;;23.60;16.05;;;5.10;99.90;;;;;;5002058;28;20041;-82
2021/10/28 21:05:44;;;;;;;24.90;16.27;;;5.10;99.90;;;;;;5003737;28;20024;-81
2021/10/28 21:08:11;;;;;;;22.20;16.13;;;5.10;99.90;;;;;;5002779;28;20101;-80
2021/10/28 21:10:36;;;;;;;22.90;14.98;;;5.10;99.90;;;;;;5002485;28;20030;-81
2021/10/28 21:13:02;;;;;;;22.15;15.10;;;5.00;99.90;;;;;;5000880;28;20046;-81
2021/10/28 21:15:29;;;;;;;19.55;14.48;;;5.00;99.90;;;;;;5003241;28;20022;-81
2021/10/28 21:17:56;;;;;;;19.63;14.23;;;5.00;99.90;;;;;;5002618;28;20387;-81
2021/10/28 21:20:24;;;;;;;18.55;14.20;;;5.00;99.90;;;;;;5002316;28;20048;-79
2021/10/28 21:22:50;;;;;;;16.70;13.30;;;5.00;99.90;;;;;;5008564;28;20038;-79
2021/10/28 21:25:16;;;;;;;20.77;14.55;;;5.00;99.90;;;;;;5003115;28;20019;-83
2021/10/28 21:27:45;;;;;;;20.17;13.80;;;5.00;99.90;;;;;;5017437;28;20503;-80
2021/10/28 21:30:12;;;;;;;17.05;12.55;;;5.00;99.90;;;;;;5001607;28;20038;-81
2021/10/28 21:32:39;;;;;;;17.55;12.98;;;5.00;99.90;;;;;;4999913;28;20022;-77
2021/10/28 21:35:07;;;;;;;20.10;13.20;;;5.00;99.90;;;;;;5002543;28;20022;-82
2021/10/28 21:37:34;;;;;;;18.33;13.52;;;5.00;99.90;;;;;;5003913;28;20048;-81
2021/10/28 21:40:00;;;;;;;19.27;13.32;;;5.00;99.90;;;;;;5003120;28;20029;-79
2021/10/28 21:42:27;;;;;;;17.55;12.80;;;5.00;99.90;;;;;;4998909;28;20026;-80
2021/10/28 21:44:54;;;;;;;19.30;12.98;;;5.00;99.90;;;;;;5003771;28;20058;-81
2021/10/28 21:47:24;;;;;;;17.20;12.65;;;4.90;99.90;;;;;;5019373;28;20026;-80
2021/10/28 21:49:51;;;;;;;15.45;12.07;;;4.80;99.90;;;;;;5005411;28;20037;-80
2021/10/28 21:52:27;;;;;;;16.02;12.25;;;4.80;99.90;;;;;;5002839;28;20022;-81